Time,TemperatureF,DewpointF,PressureIn,WindDirection,WindDirectionDegrees,WindSpeedMPH,WindSpeedGustMPH,Humidity,HourlyPrecipIn,Conditions,Clouds,dailyrainin,SoftwareType,DateUTC
2015-03-29 00:01:00,46.4,14.2,29.89,North,0,0.0,0.0,27,0.00,,,0.00,Wunderground v.1.15,2015-03-29 06:01:00,
2015-03-29 00:07:00,46.2,14.0,29.89,North,0,0.0,0.0,27,0.00,,,0.00,Wunderground v.1.15,2015-03-29 06:07:00,
2015-03-29 00:12:00,46.1,12.2,29.89,North,0,0.0,2.0,25,0.00,,,0.00,Wunderground v.1.15,2015-03-29 06:12:00,
2015-03-29 00:20:00,45.8,14.5,29.86,SW,229,1.0,1.0,28,0.00,,,0.00,Wunderground v.1.15,2015-03-29 06:20:00,
2015-03-29 00:25:00,45.1,13.9,29.86,South,169,2.0,8.0,28,0.00,,,0.00,Wunderground v.1.15,2015-03-29 06:25:00,
2015-03-29 00:30:00,44.2,13.1,29.86,South,171,4.0,4.0,28,0.00,,,0.00,Wunderground v.1.15,2015-03-29 06:30:00,
2015-03-29 00:36:00,44.3,13.2,29.86,SSW,205,3.0,8.0,28,0.00,,,0.00,Wunderground v.1.15,2015-03-29 06:36:00,
2015-03-29 00:42:00,44.3,12.4,29.86,SW,227,2.0,2.0,27,0.00,,,0.00,Wunderground v.1.15,2015-03-29 06:42:00,
2015-03-29 00:47:00,45.2,13.1,29.87,West,277,2.0,7.0,27,0.00,,,0.00,Wunderground v.1.15,2015-03-29 06:47:00,
2015-03-29 00:55:00,46.4,14.2,29.87,NW,309,10.0,10.0,27,0.00,,,0.00,Wunderground v.1.15,2015-03-29 06:55:00,
2015-03-29 01:00:00,46.5,14.3,29.86,WNW,289,8.0,8.0,27,0.00,,,0.00,Wunderground v.1.15,2015-03-29 07:00:00,
2015-03-29 01:06:00,47.1,14.8,29.86,WNW,288,8.0,9.0,27,0.00,,,0.00,Wunderground v.1.15,2015-03-29 07:06:00,
2015-03-29 01:12:00,47.1,14.8,29.86,West,267,8.0,10.0,27,0.00,,,0.00,Wunderground v.1.15,2015-03-29 07:12:00,
2015-03-29 01:20:00,46.7,11.8,29.87,WSW,246,5.0,5.0,24,0.00,,,0.00,Wunderground v.1.15,2015-03-29 07:20:00,
2015-03-29 01:25:00,46.1,11.2,29.87,WSW,248,2.0,5.0,24,0.00,,,0.00,Wunderground v.1.15,2015-03-29 07:25:00,
2015-03-29 01:31:00,45.8,11.0,29.89,West,265,2.0,4.0,24,0.00,,,0.00,Wunderground v.1.15,2015-03-29 07:31:00,
2015-03-29 01:36:00,45.8,11.0,29.89,WSW,258,3.0,6.0,24,0.00,,,0.00,Wunderground v.1.15,2015-03-29 07:36:00,
2015-03-29 01:41:00,46.0,11.2,29.89,SW,234,5.0,7.0,24,0.00,,,0.00,Wunderground v.1.15,2015-03-29 07:41:00,
2015-03-29 01:47:00,45.8,11.0,29.89,WSW,257,5.0,7.0,24,0.00,,,0.00,Wunderground v.1.15,2015-03-29 07:47:00,
2015-03-29 01:52:00,45.8,11.0,29.89,West,271,5.0,7.0,24,0.00,,,0.00,Wunderground v.1.15,2015-03-29 07:52:00,
2015-03-29 01:57:00,45.7,10.9,29.89,WNW,291,4.0,7.0,24,0.00,,,0.00,Wunderground v.1.15,2015-03-29 07:57:00,
2015-03-29 02:05:00,45.4,10.7,29.91,West,267,5.0,7.0,24,0.00,,,0.00,Wunderground v.1.15,2015-03-29 08:05:00,
2015-03-29 02:11:00,45.2,9.5,29.91,West,272,5.0,7.0,23,0.00,,,0.00,Wunderground v.1.15,2015-03-29 08:11:00,
2015-03-29 02:16:00,45.2,9.5,29.92,WNW,302,3.0,7.0,23,0.00,,,0.00,Wunderground v.1.15,2015-03-29 08:16:00,
2015-03-29 02:22:00,45.2,9.5,29.92,WSW,250,5.0,10.0,23,0.00,,,0.00,Wunderground v.1.15,2015-03-29 08:22:00,
2015-03-29 02:27:00,44.8,10.1,29.92,WSW,246,7.0,10.0,24,0.00,,,0.00,Wunderground v.1.15,2015-03-29 08:27:00,
2015-03-29 02:32:00,44.5,9.9,29.92,WSW,247,7.0,8.0,24,0.00,,,0.00,Wunderground v.1.15,2015-03-29 08:32:00,
2015-03-29 02:39:00,44.2,10.5,29.92,WSW,243,4.0,8.0,25,0.00,,,0.00,Wunderground v.1.15,2015-03-29 08:39:00,
2015-03-29 02:45:00,43.8,11.1,29.93,SW,236,2.0,4.0,26,0.00,,,0.00,Wunderground v.1.15,2015-03-29 08:45:00,
2015-03-29 02:50:00,43.2,10.6,29.93,SW,234,2.0,7.0,26,0.00,,,0.00,Wunderground v.1.15,2015-03-29 08:50:00,
2015-03-29 02:55:00,42.8,10.2,29.93,WSW,240,3.0,7.0,26,0.00,,,0.00,Wunderground v.1.15,2015-03-29 08:55:00,
2015-03-29 03:01:00,42.6,10.1,29.96,North,359,3.0,3.0,26,0.00,,,0.00,Wunderground v.1.15,2015-03-29 09:01:00,
2015-03-29 03:06:00,42.5,10.0,29.96,North,359,1.0,3.0,26,0.00,,,0.00,Wunderground v.1.15,2015-03-29 09:06:00,
2015-03-29 03:12:00,42.5,10.0,29.96,North,10,2.0,4.0,26,0.00,,,0.00,Wunderground v.1.15,2015-03-29 09:12:00,
2015-03-29 03:20:00,42.8,11.9,29.98,NNE,18,2.0,2.0,28,0.00,,,0.00,Wunderground v.1.15,2015-03-29 09:20:00,
2015-03-29 03:25:00,42.6,11.7,29.98,NNE,20,2.0,4.0,28,0.00,,,0.00,Wunderground v.1.15,2015-03-29 09:25:00,
2015-03-29 03:30:00,42.5,11.6,29.99,NNE,14,2.0,2.0,28,0.00,,,0.00,Wunderground v.1.15,2015-03-29 09:30:00,
2015-03-29 03:35:00,42.1,11.3,29.99,NNE,20,0.0,2.0,28,0.00,,,0.00,Wunderground v.1.15,2015-03-29 09:35:00,
2015-03-29 03:41:00,41.9,11.1,29.99,NNE,20,0.0,0.0,28,0.00,,,0.00,Wunderground v.1.15,2015-03-29 09:41:00,
2015-03-29 03:47:00,41.2,10.5,30.00,NNE,20,0.0,0.0,28,0.00,,,0.00,Wunderground v.1.15,2015-03-29 09:47:00,
2015-03-29 03:52:00,40.9,10.2,30.00,NNE,20,1.0,6.0,28,0.00,,,0.00,Wunderground v.1.15,2015-03-29 09:52:00,
2015-03-29 03:57:00,40.6,10.0,30.00,ENE,72,2.0,6.0,28,0.00,,,0.00,Wunderground v.1.15,2015-03-29 09:57:00,
2015-03-29 04:02:00,40.6,10.0,30.01,ENE,72,1.0,2.0,28,0.00,,,0.00,Wunderground v.1.15,2015-03-29 10:02:00,
2015-03-29 04:09:00,40.5,9.9,30.01,North,11,1.0,4.0,28,0.00,,,0.00,Wunderground v.1.15,2015-03-29 10:09:00,
2015-03-29 04:14:00,40.3,9.7,30.00,North,11,1.0,1.0,28,0.00,,,0.00,Wunderground v.1.15,2015-03-29 10:14:00,
2015-03-29 04:20:00,39.9,9.4,30.00,NE,52,0.0,0.0,28,0.00,,,0.00,Wunderground v.1.15,2015-03-29 10:20:00,
2015-03-29 04:25:00,39.8,9.3,30.00,NE,52,1.0,1.0,28,0.00,,,0.00,Wunderground v.1.15,2015-03-29 10:25:00,
2015-03-29 04:31:00,39.6,9.1,30.01,East,80,2.0,4.0,28,0.00,,,0.00,Wunderground v.1.15,2015-03-29 10:31:00,
2015-03-29 04:36:00,39.5,9.0,30.01,East,80,1.0,4.0,28,0.00,,,0.00,Wunderground v.1.15,2015-03-29 10:36:00,
2015-03-29 04:41:00,39.1,8.7,30.01,East,80,0.0,1.0,28,0.00,,,0.00,Wunderground v.1.15,2015-03-29 10:41:00,
2015-03-29 04:47:00,38.8,8.4,30.03,East,80,2.0,2.0,28,0.00,,,0.00,Wunderground v.1.15,2015-03-29 10:47:00,
2015-03-29 04:52:00,38.6,19.6,30.03,East,80,1.0,1.0,46,0.00,,,0.00,Wunderground v.1.15,2015-03-29 10:52:00,
2015-03-29 04:57:00,38.6,19.6,30.03,East,80,1.0,1.0,46,0.00,,,0.00,Wunderground v.1.15,2015-03-29 10:57:00,
2015-03-29 05:05:00,37.9,19.9,30.03,East,80,1.0,2.0,48,0.00,,,0.00,Wunderground v.1.15,2015-03-29 11:05:00,
2015-03-29 05:10:00,37.8,20.3,30.03,East,80,0.0,0.0,49,0.00,,,0.00,Wunderground v.1.15,2015-03-29 11:10:00,
2015-03-29 05:15:00,37.5,20.5,30.06,East,80,1.0,2.0,50,0.00,,,0.00,Wunderground v.1.15,2015-03-29 11:15:00,
2015-03-29 05:21:00,37.6,20.6,30.06,East,80,1.0,2.0,50,0.00,,,0.00,Wunderground v.1.15,2015-03-29 11:21:00,
2015-03-29 05:26:00,37.8,20.8,30.06,East,82,2.0,2.0,50,0.00,,,0.00,Wunderground v.1.15,2015-03-29 11:26:00,
2015-03-29 05:31:00,37.8,20.8,30.07,East,82,1.0,1.0,50,0.00,,,0.00,Wunderground v.1.15,2015-03-29 11:31:00,
2015-03-29 05:36:00,37.5,20.5,30.07,East,82,0.0,1.0,50,0.00,,,0.00,Wunderground v.1.15,2015-03-29 11:36:00,
2015-03-29 05:42:00,37.2,21.2,30.07,East,82,0.0,4.0,52,0.00,,,0.00,Wunderground v.1.15,2015-03-29 11:42:00,
2015-03-29 05:47:00,36.9,20.9,30.08,East,82,1.0,4.0,52,0.00,,,0.00,Wunderground v.1.15,2015-03-29 11:47:00,
2015-03-29 05:55:00,36.9,21.3,30.08,East,82,0.0,1.0,53,0.00,,,0.00,Wunderground v.1.15,2015-03-29 11:55:00,
2015-03-29 06:00:00,36.6,21.1,30.09,East,82,0.0,0.0,53,0.00,,,0.00,Wunderground v.1.15,2015-03-29 12:00:00,
2015-03-29 06:05:00,36.3,20.8,30.09,East,82,0.0,0.0,53,0.00,,,0.00,Wunderground v.1.15,2015-03-29 12:05:00,
2015-03-29 06:11:00,35.9,20.9,30.09,East,82,0.0,0.0,54,0.00,,,0.00,Wunderground v.1.15,2015-03-29 12:11:00,
2015-03-29 06:16:00,35.6,20.6,30.11,East,82,0.0,2.0,54,0.00,,,0.00,Wunderground v.1.15,2015-03-29 12:16:00,
2015-03-29 06:22:00,35.5,20.9,30.11,East,82,0.0,0.0,55,0.00,,,0.00,Wunderground v.1.15,2015-03-29 12:22:00,
2015-03-29 06:27:00,35.3,20.7,30.11,East,82,0.0,0.0,55,0.00,,,0.00,Wunderground v.1.15,2015-03-29 12:27:00,
2015-03-29 06:35:00,34.9,20.8,30.12,East,82,0.0,0.0,56,0.00,,,0.00,Wunderground v.1.15,2015-03-29 12:35:00,
2015-03-29 06:40:00,34.6,20.5,30.12,East,82,0.0,0.0,56,0.00,,,0.00,Wunderground v.1.15,2015-03-29 12:40:00,
2015-03-29 06:45:00,34.3,20.2,30.13,East,82,0.0,0.0,56,0.00,,,0.00,Wunderground v.1.15,2015-03-29 12:45:00,
2015-03-29 06:51:00,34.3,20.6,30.13,East,82,0.0,0.0,57,0.00,,,0.00,Wunderground v.1.15,2015-03-29 12:51:00,
2015-03-29 06:56:00,33.8,20.2,30.13,East,82,0.0,0.0,57,0.00,,,0.00,Wunderground v.1.15,2015-03-29 12:56:00,
2015-03-29 07:02:00,33.5,20.3,30.15,East,82,0.0,0.0,58,0.00,,,0.00,Wunderground v.1.15,2015-03-29 13:02:00,
2015-03-29 07:09:00,33.5,20.3,30.15,East,82,0.0,0.0,58,0.00,,,0.00,Wunderground v.1.15,2015-03-29 13:09:00,
2015-03-29 07:15:00,34.1,20.4,30.33,East,82,0.0,0.0,57,0.00,,,0.00,Wunderground v.1.15,2015-03-29 13:15:00,
2015-03-29 07:20:00,34.4,20.7,30.33,East,82,0.0,0.0,57,0.00,,,0.00,Wunderground v.1.15,2015-03-29 13:20:00,
2015-03-29 07:25:00,34.4,20.7,30.33,East,82,0.0,0.0,57,0.00,,,0.00,Wunderground v.1.15,2015-03-29 13:25:00,
2015-03-29 07:30:00,34.9,21.2,30.31,SSE,154,2.0,2.0,57,0.00,,,0.00,Wunderground v.1.15,2015-03-29 13:30:00,
2015-03-29 07:36:00,35.0,21.3,30.31,SSE,152,1.0,2.0,57,0.00,,,0.00,Wunderground v.1.15,2015-03-29 13:36:00,
2015-03-29 07:41:00,36.0,22.2,30.31,SSE,152,0.0,0.0,57,0.00,,,0.00,Wunderground v.1.15,2015-03-29 13:41:00,
2015-03-29 07:47:00,36.8,23.0,30.29,SSE,152,0.0,2.0,57,0.00,,,0.00,Wunderground v.1.15,2015-03-29 13:47:00,
2015-03-29 07:52:00,37.0,21.9,30.29,SSE,152,0.0,0.0,54,0.00,,,0.00,Wunderground v.1.15,2015-03-29 13:52:00,
2015-03-29 08:00:00,38.0,22.8,30.27,SSE,152,0.0,0.0,54,0.00,,,0.00,Wunderground v.1.15,2015-03-29 14:00:00,
2015-03-29 08:05:00,38.6,23.4,30.27,SSE,152,0.0,0.0,54,0.00,,,0.00,Wunderground v.1.15,2015-03-29 14:05:00,
2015-03-29 08:10:00,40.2,24.9,30.27,SSE,152,0.0,0.0,54,0.00,,,0.00,Wunderground v.1.15,2015-03-29 14:10:00,
2015-03-29 08:16:00,41.3,22.6,30.13,SSE,152,0.0,0.0,47,0.00,,,0.00,Wunderground v.1.15,2015-03-29 14:16:00,
2015-03-29 08:22:00,42.5,23.2,30.13,SSE,152,0.0,0.0,46,0.00,,,0.00,Wunderground v.1.15,2015-03-29 14:22:00,
2015-03-29 08:27:00,43.5,23.0,30.13,SSE,152,0.0,0.0,44,0.00,,,0.00,Wunderground v.1.15,2015-03-29 14:27:00,
2015-03-29 08:35:00,43.8,23.3,30.13,SSE,152,0.0,2.0,44,0.00,,,0.00,Wunderground v.1.15,2015-03-29 14:35:00,
2015-03-29 08:40:00,44.1,23.6,30.13,SSE,155,0.0,0.0,44,0.00,,,0.00,Wunderground v.1.15,2015-03-29 14:40:00,
2015-03-29 08:46:00,44.3,23.7,30.13,WNW,287,2.0,6.0,44,0.00,,,0.00,Wunderground v.1.15,2015-03-29 14:46:00,
2015-03-29 08:51:00,44.3,23.7,30.13,WNW,287,1.0,1.0,44,0.00,,,0.00,Wunderground v.1.15,2015-03-29 14:51:00,
2015-03-29 08:56:00,41.8,21.5,30.13,WSW,240,0.0,4.0,44,0.00,,,0.00,Wunderground v.1.15,2015-03-29 14:56:00,
2015-03-29 09:01:00,41.8,21.5,30.14,WSW,243,1.0,1.0,44,0.00,,,0.00,Wunderground v.1.15,2015-03-29 15:01:00,
2015-03-29 09:06:00,42.5,22.1,30.14,WSW,243,0.0,1.0,44,0.00,,,0.00,Wunderground v.1.15,2015-03-29 15:06:00,
2015-03-29 09:12:00,43.8,22.2,30.14,WNW,296,3.0,6.0,42,0.00,,,0.00,Wunderground v.1.15,2015-03-29 15:12:00,
2015-03-29 09:17:00,44.3,22.1,30.15,NW,320,4.0,6.0,41,0.00,,,0.00,Wunderground v.1.15,2015-03-29 15:17:00,
2015-03-29 09:22:00,44.6,22.3,30.15,NW,323,4.0,4.0,41,0.00,,,0.00,Wunderground v.1.15,2015-03-29 15:22:00,
2015-03-29 09:30:00,45.1,22.2,30.13,NNW,333,3.0,3.0,40,0.00,,,0.00,Wunderground v.1.15,2015-03-29 15:30:00,
2015-03-29 09:35:00,45.5,21.3,30.13,WNW,288,3.0,6.0,38,0.00,,,0.00,Wunderground v.1.15,2015-03-29 15:35:00,
2015-03-29 09:41:00,46.1,21.9,30.13,NW,323,2.0,2.0,38,0.00,,,0.00,Wunderground v.1.15,2015-03-29 15:41:00,
2015-03-29 09:46:00,46.5,22.2,30.13,NNW,328,1.0,3.0,38,0.00,,,0.00,Wunderground v.1.15,2015-03-29 15:46:00,
2015-03-29 09:52:00,47.1,21.5,30.13,NNW,330,0.0,1.0,36,0.00,,,0.00,Wunderground v.1.15,2015-03-29 15:52:00,
2015-03-29 09:57:00,47.1,21.5,30.13,NNW,330,0.0,1.0,36,0.00,,,0.00,Wunderground v.1.15,2015-03-29 15:57:00,
2015-03-29 10:02:00,47.1,21.5,30.12,NNW,343,2.0,2.0,36,0.00,,,0.00,Wunderground v.1.15,2015-03-29 16:02:00,
2015-03-29 10:10:00,48.2,22.5,30.12,SW,234,1.0,2.0,36,0.00,,,0.00,Wunderground v.1.15,2015-03-29 16:10:00,
2015-03-29 10:15:00,48.5,19.9,30.13,SSW,210,1.0,4.0,32,0.00,,,0.00,Wunderground v.1.15,2015-03-29 16:15:00,
2015-03-29 10:21:00,48.8,19.5,30.13,SSW,209,1.0,1.0,31,0.00,,,0.00,Wunderground v.1.15,2015-03-29 16:21:00,
2015-03-29 10:26:00,49.5,18.5,30.13,SW,223,1.0,1.0,29,0.00,,,0.00,Wunderground v.1.15,2015-03-29 16:26:00,
2015-03-29 10:31:00,50.1,19.0,30.13,West,264,6.0,6.0,29,0.00,,,0.00,Wunderground v.1.15,2015-03-29 16:31:00,
2015-03-29 10:37:00,50.2,16.6,30.13,West,271,5.0,6.0,26,0.00,,,0.00,Wunderground v.1.15,2015-03-29 16:37:00,
2015-03-29 10:42:00,50.8,17.1,30.13,WSW,240,4.0,8.0,26,0.00,,,0.00,Wunderground v.1.15,2015-03-29 16:42:00,